createdAt,value
2023-05-05T00:00:40.302Z,6.00
2023-05-05T00:01:43.538Z,7.25
2023-05-05T00:02:46.055Z,7.25
2023-05-05T00:03:54.386Z,6.45
2023-05-05T00:04:56.794Z,8.52
2023-05-05T00:05:59.129Z,6.80
2023-05-05T00:07:01.749Z,6.10
2023-05-05T00:08:04.348Z,6.45
2023-05-05T00:09:07.251Z,5.75
2023-05-05T00:10:10.130Z,6.00
2023-05-05T00:11:12.675Z,9.02
2023-05-05T00:12:15.108Z,9.27
2023-05-05T00:13:18.260Z,7.00
2023-05-05T00:14:20.520Z,8.35
2023-05-05T00:15:23.006Z,6.35
2023-05-05T00:16:25.840Z,10.13
2023-05-05T00:17:28.343Z,8.07
2023-05-05T00:18:31.033Z,6.82
2023-05-05T00:19:33.780Z,7.80
2023-05-05T00:20:36.399Z,9.60
2023-05-05T00:21:38.744Z,6.53
2023-05-05T00:22:41.083Z,6.22
2023-05-05T00:23:43.360Z,6.40
2023-05-05T00:24:45.668Z,7.78
2023-05-05T00:25:48.103Z,8.60
2023-05-05T00:26:51.265Z,6.22
2023-05-05T00:27:53.572Z,5.13
2023-05-05T00:28:55.966Z,10.00
2023-05-05T00:29:58.485Z,8.32
2023-05-05T00:31:00.858Z,8.30
2023-05-05T00:32:03.187Z,6.63
2023-05-05T00:33:05.995Z,8.05
2023-05-05T00:34:08.395Z,8.80
2023-05-05T00:35:10.855Z,7.38
2023-05-05T00:36:13.851Z,7.90
2023-05-05T00:37:16.906Z,8.88
2023-05-05T00:38:19.200Z,7.63
2023-05-05T00:39:21.856Z,9.38
2023-05-05T00:40:25.436Z,7.18
2023-05-05T00:41:27.956Z,6.63
2023-05-05T00:42:40.001Z,6.78
2023-05-05T00:43:42.290Z,7.22
2023-05-05T00:44:45.146Z,6.20
2023-05-05T00:45:48.186Z,9.15
2023-05-05T00:46:50.641Z,7.57
2023-05-05T00:47:55.033Z,5.68
2023-05-05T00:49:59.914Z,7.03
2023-05-05T00:51:02.416Z,8.38
2023-05-05T00:52:06.758Z,8.73
2023-05-05T00:53:08.940Z,9.82
2023-05-05T00:54:11.319Z,10.20
2023-05-05T00:55:13.825Z,8.32
2023-05-05T00:56:17.335Z,8.40
2023-05-05T00:57:20.740Z,6.85
2023-05-05T00:58:23.258Z,9.55
2023-05-05T00:59:25.965Z,8.57
2023-05-05T01:00:29.040Z,7.97
2023-05-05T01:01:31.647Z,9.98
2023-05-05T01:02:34.134Z,10.73
2023-05-05T01:03:38.245Z,8.30
2023-05-05T01:05:55.362Z,10.32
2023-05-05T01:07:24.081Z,9.90
2023-05-05T01:09:17.584Z,13.50
2023-05-05T01:10:23.625Z,7.10
2023-05-05T01:11:49.220Z,7.80
2023-05-05T01:13:05.979Z,9.00
2023-05-05T01:15:38.195Z,8.30
2023-05-05T01:16:49.249Z,9.13
2023-05-05T01:18:32.902Z,10.55
2023-05-05T01:19:41.103Z,8.38
2023-05-05T01:20:50.357Z,9.05
2023-05-05T01:21:56.795Z,7.90
2023-05-05T01:23:06.081Z,8.27
2023-05-05T01:24:23.223Z,10.00
2023-05-05T01:25:46.808Z,11.13
2023-05-05T01:27:27.396Z,7.57
2023-05-05T01:28:55.877Z,8.32
2023-05-05T01:30:22.944Z,8.77
2023-05-05T01:31:57.766Z,9.70
2023-05-05T01:33:08.952Z,7.68
2023-05-05T01:34:16.827Z,9.57
2023-05-05T01:35:22.871Z,9.60
2023-05-05T01:36:35.315Z,7.65
2023-05-05T01:38:00.450Z,9.20
2023-05-05T01:39:03.662Z,7.82
2023-05-05T01:40:08.574Z,8.77
2023-05-05T01:41:15.025Z,9.80
2023-05-05T01:42:18.822Z,10.35
2023-05-05T01:43:23.780Z,10.32
2023-05-05T01:44:28.091Z,9.38
2023-05-05T01:45:32.900Z,8.15
2023-05-05T01:46:36.606Z,8.98
2023-05-05T01:47:40.452Z,8.60
2023-05-05T01:48:43.478Z,8.45
2023-05-05T01:49:47.578Z,10.60
2023-05-05T01:50:50.762Z,10.82
2023-05-05T01:51:53.750Z,8.52
2023-05-05T01:52:57.112Z,9.75
2023-05-05T01:54:01.416Z,7.10
2023-05-05T01:55:04.195Z,8.50
2023-05-05T01:56:08.167Z,8.98
2023-05-05T01:58:14.072Z,8.70
2023-05-05T01:59:17.399Z,14.25
2023-05-05T02:00:20.332Z,9.75
2023-05-05T02:01:24.952Z,9.65
2023-05-05T02:02:28.720Z,7.80
2023-05-05T02:03:32.264Z,7.38
2023-05-05T02:04:36.600Z,11.45
2023-05-05T02:05:39.834Z,9.10
2023-05-05T02:06:44.084Z,10.32
2023-05-05T02:07:47.103Z,9.30
2023-05-05T02:08:50.548Z,9.98
2023-05-05T02:09:53.448Z,10.70
2023-05-05T02:10:56.038Z,10.27
2023-05-05T02:11:59.899Z,9.07
2023-05-05T02:13:05.568Z,8.05
2023-05-05T02:14:09.542Z,7.47
2023-05-05T02:15:13.288Z,11.00
2023-05-05T02:16:17.235Z,8.23
2023-05-05T02:17:22.181Z,8.02
2023-05-05T02:18:25.553Z,10.65
2023-05-05T02:19:30.714Z,9.38
2023-05-05T02:20:34.076Z,8.90
2023-05-05T02:21:36.537Z,8.73
2023-05-05T02:22:40.983Z,8.98
2023-05-05T02:23:44.269Z,8.40
2023-05-05T02:24:47.270Z,15.32
2023-05-05T02:25:50.856Z,9.80
2023-05-05T02:26:53.873Z,8.95
2023-05-05T02:27:57.862Z,10.43
2023-05-05T02:30:11.217Z,8.98
2023-05-05T02:31:14.326Z,9.15
2023-05-05T02:32:41.620Z,10.43
2023-05-05T02:33:46.023Z,8.85
2023-05-05T02:34:49.858Z,8.27
2023-05-05T02:35:54.894Z,13.18
2023-05-05T02:37:04.367Z,15.35
2023-05-05T02:38:13.909Z,17.67
2023-05-05T02:39:24.916Z,10.90
2023-05-05T02:40:29.176Z,11.35
2023-05-05T02:41:33.559Z,9.18
2023-05-05T02:42:41.913Z,9.82
2023-05-05T02:43:49.143Z,11.50
2023-05-05T02:44:54.512Z,9.57
2023-05-05T02:45:57.309Z,8.45
2023-05-05T02:46:59.867Z,8.45
2023-05-05T02:48:04.363Z,9.93
2023-05-05T02:49:10.295Z,8.10
2023-05-05T02:50:15.813Z,10.23
2023-05-05T02:51:27.810Z,11.98
2023-05-05T02:52:32.677Z,10.40
2023-05-05T02:53:35.275Z,12.02
2023-05-05T02:54:37.921Z,12.23
2023-05-05T02:55:52.340Z,12.88
2023-05-05T02:56:59.125Z,7.63
2023-05-05T02:58:59.036Z,8.85
2023-05-05T03:00:09.873Z,11.73
2023-05-05T03:01:53.545Z,8.93
2023-05-05T03:03:25.196Z,11.13
2023-05-05T03:05:04.231Z,9.73
2023-05-05T03:06:16.697Z,10.27
2023-05-05T03:07:33.680Z,8.70
2023-05-05T03:08:51.301Z,10.15
2023-05-05T03:10:20.551Z,8.77
2023-05-05T03:11:36.416Z,9.40
2023-05-05T03:12:53.349Z,10.18
2023-05-05T03:14:12.097Z,9.45
2023-05-05T03:15:17.392Z,6.95
2023-05-05T03:16:22.242Z,11.27
2023-05-05T03:17:25.840Z,9.85
2023-05-05T03:18:30.055Z,7.53
2023-05-05T03:19:37.736Z,17.20
2023-05-05T03:20:40.970Z,8.73
2023-05-05T03:21:52.599Z,8.27
2023-05-05T03:22:55.259Z,10.38
2023-05-05T03:24:00.848Z,9.60
2023-05-05T03:25:04.754Z,9.55
2023-05-05T03:26:07.528Z,7.85
2023-05-05T03:27:14.716Z,9.80
2023-05-05T03:28:18.491Z,8.25
2023-05-05T03:29:29.402Z,10.48
2023-05-05T03:30:34.693Z,12.65
2023-05-05T03:31:37.573Z,9.55
2023-05-05T03:32:48.730Z,10.48
2023-05-05T03:33:52.922Z,10.65
2023-05-05T03:36:19.656Z,10.65
2023-05-05T03:37:22.694Z,10.50
2023-05-05T03:38:25.442Z,10.77
2023-05-05T03:40:00.644Z,11.57
2023-05-05T03:41:06.214Z,10.95
2023-05-05T03:42:09.039Z,11.68
2023-05-05T03:43:12.081Z,11.30
2023-05-05T03:44:14.435Z,8.57
2023-05-05T03:45:17.209Z,9.95
2023-05-05T03:46:19.687Z,9.23
2023-05-05T03:47:24.749Z,11.90
2023-05-05T03:48:28.442Z,13.98
2023-05-05T03:49:30.890Z,14.30
2023-05-05T03:50:33.940Z,11.65
2023-05-05T03:51:37.028Z,10.73
2023-05-05T03:52:39.585Z,11.48
2023-05-05T03:53:42.044Z,12.20
2023-05-05T03:54:46.251Z,12.05
2023-05-05T03:55:48.764Z,14.43
2023-05-05T03:56:51.183Z,11.63
2023-05-05T03:57:53.554Z,11.65
2023-05-05T03:58:56.003Z,12.02
2023-05-05T03:59:59.698Z,10.15
2023-05-05T04:01:02.316Z,11.25
2023-05-05T04:02:04.706Z,13.20
2023-05-05T04:03:07.410Z,9.93
2023-05-05T04:04:09.934Z,11.45
2023-05-05T04:05:12.303Z,10.20
2023-05-05T04:06:14.510Z,10.27
2023-05-05T04:07:17.245Z,8.95
2023-05-05T04:08:19.685Z,9.23
2023-05-05T04:09:22.065Z,10.18
2023-05-05T04:10:24.379Z,13.82
2023-05-05T04:11:26.800Z,10.15
2023-05-05T04:12:31.154Z,9.93
2023-05-05T04:13:33.838Z,11.20
2023-05-05T04:14:36.348Z,12.55
2023-05-05T04:15:38.844Z,9.70
2023-05-05T04:16:41.230Z,10.30
2023-05-05T04:17:43.709Z,11.57
2023-05-05T04:18:46.079Z,13.80
2023-05-05T04:19:48.785Z,11.80
2023-05-05T04:20:51.498Z,12.73
2023-05-05T04:21:53.898Z,9.52
2023-05-05T04:22:56.751Z,12.73
2023-05-05T04:23:59.802Z,12.30
2023-05-05T04:25:02.192Z,10.18
2023-05-05T04:26:04.535Z,10.38
2023-05-05T04:27:07.279Z,9.35
2023-05-05T04:28:09.960Z,9.88
2023-05-05T04:29:12.335Z,10.95
2023-05-05T04:30:15.271Z,11.65
2023-05-05T04:31:18.212Z,11.90
2023-05-05T04:32:21.809Z,11.10
2023-05-05T04:33:24.304Z,11.88
2023-05-05T04:34:26.824Z,11.07
2023-05-05T04:35:29.840Z,12.75
2023-05-05T04:36:35.669Z,13.75
2023-05-05T04:37:38.173Z,11.35
2023-05-05T04:38:40.588Z,9.75
2023-05-05T04:39:43.229Z,11.70
2023-05-05T04:40:46.195Z,12.02
2023-05-05T04:41:48.767Z,11.07
2023-05-05T04:42:51.640Z,15.85
2023-05-05T04:43:55.355Z,12.57
2023-05-05T04:44:57.723Z,8.60
2023-05-05T04:46:00.210Z,9.68
2023-05-05T04:47:06.334Z,9.63
2023-05-05T04:48:08.609Z,9.07
2023-05-05T04:49:11.774Z,9.13
2023-05-05T04:50:14.287Z,10.43
2023-05-05T04:51:16.828Z,8.52
2023-05-05T04:52:19.160Z,9.32
2023-05-05T04:53:21.541Z,10.52
2023-05-05T04:54:24.167Z,11.65
2023-05-05T04:55:26.475Z,9.10
2023-05-05T04:56:32.396Z,10.90
2023-05-05T04:57:35.234Z,10.02
2023-05-05T04:58:37.580Z,13.35
2023-05-05T04:59:41.589Z,9.23
2023-05-05T05:00:44.227Z,9.65
2023-05-05T05:01:47.050Z,9.82
2023-05-05T05:02:52.822Z,12.43
2023-05-05T05:03:55.910Z,12.20
2023-05-05T05:04:58.479Z,9.50
2023-05-05T05:06:01.008Z,8.40
2023-05-05T05:07:03.293Z,10.27
2023-05-05T05:08:06.391Z,11.32
2023-05-05T05:09:09.216Z,10.23
2023-05-05T05:10:12.257Z,9.98
2023-05-05T05:11:14.997Z,10.27
2023-05-05T05:12:17.312Z,9.98
2023-05-05T05:13:19.650Z,8.40
2023-05-05T05:14:22.064Z,10.07
2023-05-05T05:15:26.977Z,8.57
2023-05-05T05:16:29.422Z,10.57
2023-05-05T05:17:32.115Z,10.35
2023-05-05T05:18:35.244Z,9.05
2023-05-05T05:19:37.889Z,8.95
2023-05-05T05:20:40.345Z,7.38
2023-05-05T05:21:43.705Z,10.48
2023-05-05T05:22:46.988Z,7.65
2023-05-05T05:23:52.809Z,8.90
2023-05-05T05:24:55.359Z,9.38
2023-05-05T05:25:57.806Z,8.27
2023-05-05T05:27:00.418Z,8.27
2023-05-05T05:28:10.186Z,9.57
2023-05-05T05:29:20.676Z,7.90
2023-05-05T05:30:25.620Z,9.05
2023-05-05T05:31:28.018Z,8.45
2023-05-05T05:32:31.300Z,9.50
2023-05-05T05:33:33.840Z,7.53
2023-05-05T05:34:36.557Z,10.00
2023-05-05T05:35:40.725Z,9.43
2023-05-05T05:36:43.844Z,8.93
2023-05-05T05:37:47.878Z,7.55
2023-05-05T05:38:50.506Z,10.70
2023-05-05T05:39:53.477Z,9.27
2023-05-05T05:40:58.383Z,8.88
2023-05-05T05:42:00.958Z,9.32
2023-05-05T05:43:04.222Z,8.48
2023-05-05T05:44:07.065Z,7.78
2023-05-05T05:45:09.910Z,7.68
2023-05-05T05:46:12.791Z,9.50
2023-05-05T05:47:16.905Z,7.65
2023-05-05T05:48:21.578Z,11.40
2023-05-05T05:50:28.820Z,8.77
2023-05-05T05:51:32.755Z,9.18
2023-05-05T05:52:36.425Z,6.35
2023-05-05T05:53:40.715Z,9.40
2023-05-05T05:54:44.461Z,9.13
2023-05-05T05:55:47.265Z,8.43
2023-05-05T05:56:51.481Z,7.43
2023-05-05T05:57:54.008Z,7.97
2023-05-05T05:58:58.409Z,9.27
2023-05-05T06:00:04.477Z,8.68
2023-05-05T06:01:19.736Z,5.15
2023-05-05T06:02:36.299Z,5.82
2023-05-05T06:03:39.055Z,8.20
2023-05-05T06:04:41.977Z,8.48
2023-05-05T06:06:09.864Z,11.75
2023-05-05T06:08:59.196Z,5.90
2023-05-05T06:10:14.493Z,6.15
2023-05-05T06:11:24.547Z,9.95
2023-05-05T06:12:26.882Z,11.13
2023-05-05T06:13:29.489Z,7.45
2023-05-05T06:14:32.207Z,5.97
2023-05-05T06:15:34.621Z,7.22
2023-05-05T06:16:39.226Z,6.70
2023-05-05T06:17:45.910Z,8.02
2023-05-05T06:18:48.513Z,6.75
2023-05-05T06:19:52.441Z,5.60
2023-05-05T06:20:56.892Z,11.10
2023-05-05T06:22:03.252Z,7.15
2023-05-05T06:23:06.891Z,7.55
2023-05-05T06:24:12.915Z,5.15
2023-05-05T06:25:16.818Z,8.73
2023-05-05T06:26:19.408Z,7.57
2023-05-05T06:27:21.854Z,10.23
2023-05-05T06:28:24.531Z,7.63
2023-05-05T06:29:27.294Z,6.57
2023-05-05T06:30:35.786Z,7.32
2023-05-05T06:31:38.427Z,4.78
2023-05-05T06:32:41.419Z,6.95
2023-05-05T06:33:43.998Z,7.63
2023-05-05T06:34:48.798Z,6.53
2023-05-05T06:35:53.607Z,8.50
2023-05-05T06:36:56.381Z,5.43
2023-05-05T06:38:05.997Z,7.78
2023-05-05T06:39:11.768Z,7.93
2023-05-05T06:40:15.226Z,6.00
2023-05-05T06:41:18.395Z,8.43
2023-05-05T06:42:20.899Z,6.45
2023-05-05T06:43:23.491Z,6.60
2023-05-05T06:44:31.526Z,5.70
2023-05-05T06:45:34.606Z,7.07
2023-05-05T06:46:38.288Z,8.18
2023-05-05T06:47:42.725Z,7.47
2023-05-05T06:48:45.732Z,8.35
2023-05-05T06:49:48.388Z,5.88
2023-05-05T06:50:51.280Z,10.25
2023-05-05T06:51:54.560Z,6.13
2023-05-05T06:52:57.349Z,7.32
2023-05-05T06:53:59.852Z,6.30
2023-05-05T06:55:03.907Z,8.38
2023-05-05T06:56:06.743Z,9.57
2023-05-05T06:57:09.768Z,9.10
2023-05-05T06:58:15.104Z,8.27
2023-05-05T06:59:17.576Z,9.20
2023-05-05T07:00:20.465Z,7.68
2023-05-05T07:01:23.038Z,4.85
2023-05-05T07:02:26.918Z,8.35
2023-05-05T07:03:30.007Z,13.93
2023-05-05T07:04:32.917Z,8.05
2023-05-05T07:05:48.279Z,5.88
2023-05-05T07:06:50.835Z,7.75
2023-05-05T07:07:54.414Z,6.65
2023-05-05T07:08:58.046Z,10.40
2023-05-05T07:10:08.665Z,8.02
2023-05-05T07:13:43.475Z,6.97
2023-05-05T07:14:47.061Z,8.50
2023-05-05T07:16:53.062Z,6.35
2023-05-05T07:17:58.431Z,7.60
2023-05-05T07:19:05.589Z,8.98
2023-05-05T07:20:19.202Z,7.57
2023-05-05T07:21:21.858Z,6.38
2023-05-05T07:22:28.025Z,6.50
2023-05-05T07:23:30.595Z,7.80
2023-05-05T07:24:32.901Z,8.68
2023-05-05T07:25:38.712Z,7.05
2023-05-05T07:26:42.528Z,7.20
2023-05-05T07:28:10.745Z,7.82
2023-05-05T07:29:17.191Z,9.02
2023-05-05T07:30:20.165Z,7.43
2023-05-05T07:31:22.694Z,5.70
2023-05-05T07:32:31.733Z,4.30
2023-05-05T07:34:00.213Z,6.15
2023-05-05T07:35:02.599Z,8.20
2023-05-05T07:36:05.329Z,8.27
2023-05-05T07:37:09.391Z,6.43
2023-05-05T07:38:11.801Z,7.38
2023-05-05T07:39:15.842Z,7.88
2023-05-05T07:40:18.383Z,9.75
2023-05-05T07:41:25.005Z,7.05
2023-05-05T07:42:30.404Z,4.63
2023-05-05T07:45:00.921Z,8.93
2023-05-05T07:46:03.805Z,9.20
2023-05-05T07:47:12.347Z,8.65
2023-05-05T07:48:17.091Z,8.30
2023-05-05T07:49:20.310Z,7.38
2023-05-05T07:50:27.312Z,5.53
2023-05-05T07:53:10.874Z,9.00
2023-05-05T07:54:19.296Z,7.78
2023-05-05T07:55:24.098Z,6.72
2023-05-05T07:56:28.017Z,6.20
2023-05-05T07:59:35.687Z,8.90
2023-05-05T08:00:38.876Z,5.38
2023-05-05T08:01:42.238Z,4.85
2023-05-05T08:02:49.416Z,15.75
2023-05-05T08:03:52.019Z,9.25
2023-05-05T08:09:11.966Z,5.97
2023-05-05T08:10:14.968Z,5.47
2023-05-05T08:11:17.992Z,8.52
2023-05-05T08:12:20.683Z,6.45
2023-05-05T08:13:23.158Z,6.70
2023-05-05T08:14:42.933Z,7.28
2023-05-05T08:15:45.654Z,6.30
2023-05-05T08:16:48.263Z,7.18
2023-05-05T08:17:52.345Z,7.03
2023-05-05T08:18:54.795Z,5.13
2023-05-05T08:19:59.980Z,7.57
2023-05-05T08:21:02.426Z,5.57
2023-05-05T08:22:04.883Z,5.40
2023-05-05T08:23:07.214Z,6.18
2023-05-05T08:24:09.519Z,4.78
2023-05-05T08:25:13.306Z,5.97
2023-05-05T08:27:20.121Z,7.45
2023-05-05T08:28:35.248Z,4.75
2023-05-05T08:29:37.686Z,5.05
2023-05-05T08:30:40.296Z,6.00
2023-05-05T08:31:46.680Z,6.70
2023-05-05T08:32:49.651Z,6.25
2023-05-05T08:33:52.991Z,7.07
2023-05-05T08:34:56.613Z,7.50
2023-05-05T08:35:59.988Z,7.40
2023-05-05T08:37:02.570Z,5.30
2023-05-05T08:38:12.909Z,7.25
2023-05-05T08:39:16.800Z,8.25
2023-05-05T08:40:21.208Z,5.90
2023-05-05T08:41:23.740Z,8.95
2023-05-05T08:42:36.951Z,6.72
2023-05-05T08:43:41.431Z,10.45
2023-05-05T08:44:43.910Z,6.03
2023-05-05T08:45:51.426Z,11.77
2023-05-05T08:46:55.100Z,5.53
2023-05-05T08:48:07.735Z,7.63
2023-05-05T08:49:19.496Z,7.43
2023-05-05T08:50:26.109Z,6.10
2023-05-05T08:51:40.407Z,7.68
2023-05-05T08:52:45.373Z,4.78
2023-05-05T08:54:06.049Z,4.80
2023-05-05T08:55:29.035Z,6.18
2023-05-05T08:56:40.112Z,7.50
2023-05-05T08:58:06.083Z,5.07
2023-05-05T08:59:10.200Z,5.68
2023-05-05T09:00:13.566Z,5.13
2023-05-05T09:01:17.343Z,5.75
2023-05-05T09:03:50.881Z,8.30
2023-05-05T09:04:57.775Z,4.10
2023-05-05T09:06:08.017Z,6.00
2023-05-05T09:07:11.253Z,4.43
2023-05-05T09:08:13.653Z,7.18
2023-05-05T09:09:16.300Z,5.57
2023-05-05T09:10:19.629Z,4.68
2023-05-05T09:11:23.526Z,5.50
2023-05-05T09:12:32.663Z,5.30
2023-05-05T09:15:16.754Z,8.00
2023-05-05T09:16:26.087Z,5.25
2023-05-05T09:17:30.999Z,4.40
2023-05-05T09:18:42.080Z,4.57
2023-05-05T09:20:08.175Z,4.35
2023-05-05T09:21:25.051Z,6.65
2023-05-05T09:22:47.477Z,5.68
2023-05-05T09:24:08.887Z,6.05
2023-05-05T09:25:20.302Z,5.95
2023-05-05T09:26:23.889Z,7.22
2023-05-05T09:27:30.745Z,5.00
2023-05-05T09:28:34.831Z,11.90
2023-05-05T09:29:37.398Z,5.93
2023-05-05T09:30:41.323Z,6.78
2023-05-05T09:31:44.948Z,6.10
2023-05-05T09:32:49.202Z,5.38
2023-05-05T09:33:51.765Z,4.65
2023-05-05T09:35:00.213Z,6.32
2023-05-05T09:36:02.908Z,5.13
2023-05-05T09:37:06.416Z,4.03
2023-05-05T09:39:19.966Z,6.18
2023-05-05T09:44:10.274Z,5.40
2023-05-05T09:45:41.983Z,5.72
2023-05-05T09:47:26.132Z,5.35
2023-05-05T09:48:43.878Z,7.97
2023-05-05T09:49:59.087Z,4.03
2023-05-05T09:51:17.297Z,6.45
2023-05-05T09:53:13.724Z,5.97
2023-05-05T09:54:29.693Z,4.40
2023-05-05T09:55:35.823Z,8.10
2023-05-05T09:56:44.349Z,4.40
2023-05-05T09:57:55.578Z,7.57
2023-05-05T09:59:18.504Z,5.13
2023-05-05T10:00:21.451Z,4.78
2023-05-05T10:01:31.666Z,5.35
2023-05-05T10:04:30.952Z,5.60
2023-05-05T10:09:20.329Z,4.53
2023-05-05T10:13:48.095Z,5.82
2023-05-05T10:15:10.686Z,7.20
2023-05-05T10:18:05.818Z,5.75
2023-05-05T10:19:42.478Z,5.10
2023-05-05T10:22:44.647Z,5.55
2023-05-05T10:26:16.269Z,5.72
2023-05-05T10:29:10.315Z,6.20
2023-05-05T10:34:09.089Z,3.30
2023-05-05T10:36:41.583Z,3.45
2023-05-05T10:37:48.160Z,7.25
2023-05-05T10:39:10.980Z,4.53
2023-05-05T10:43:48.833Z,4.35
2023-05-05T10:44:51.898Z,3.47
2023-05-05T10:46:01.271Z,4.68
2023-05-05T10:47:04.370Z,3.35
2023-05-05T10:48:37.912Z,6.13
2023-05-05T10:51:02.220Z,3.33
2023-05-05T10:52:26.025Z,4.60
2023-05-05T10:54:03.531Z,3.67
2023-05-05T10:55:18.071Z,4.25
2023-05-05T10:56:31.589Z,3.47
2023-05-05T10:57:37.549Z,3.58
2023-05-05T10:58:59.001Z,4.30
2023-05-05T11:00:02.330Z,4.13
2023-05-05T11:01:06.756Z,5.13
2023-05-05T11:02:28.919Z,5.20
2023-05-05T11:04:25.623Z,3.65
2023-05-05T11:05:28.052Z,3.50
2023-05-05T11:07:02.647Z,3.38
2023-05-05T11:08:25.816Z,3.60
2023-05-05T11:09:29.260Z,3.22
2023-05-05T11:10:53.554Z,3.78
2023-05-05T11:12:04.772Z,3.67
2023-05-05T11:13:07.278Z,5.82
2023-05-05T11:14:24.772Z,5.97
2023-05-05T11:15:30.469Z,3.95
2023-05-05T11:16:46.076Z,4.18
2023-05-05T11:17:49.035Z,3.90
2023-05-05T11:18:51.520Z,5.15
2023-05-05T11:19:54.011Z,3.63
2023-05-05T11:20:59.594Z,3.88
2023-05-05T11:22:03.267Z,6.47
2023-05-05T11:23:06.012Z,3.85
2023-05-05T11:24:31.800Z,3.13
2023-05-05T11:25:41.151Z,4.15
2023-05-05T11:26:54.480Z,3.63
2023-05-05T11:28:09.691Z,3.67
2023-05-05T11:29:12.220Z,3.75
2023-05-05T11:30:15.362Z,3.72
2023-05-05T11:31:34.250Z,5.20
2023-05-05T11:32:36.915Z,3.28
2023-05-05T11:33:39.417Z,3.13
2023-05-05T11:34:51.084Z,3.45
2023-05-05T11:36:06.512Z,3.40
2023-05-05T11:37:09.642Z,3.80
2023-05-05T11:38:13.082Z,3.95
2023-05-05T11:39:30.065Z,5.15
2023-05-05T11:40:35.119Z,3.42
2023-05-05T11:42:10.695Z,4.57
2023-05-05T11:43:22.577Z,4.88
2023-05-05T11:44:35.006Z,3.22
2023-05-05T11:45:37.443Z,3.70
2023-05-05T11:46:41.200Z,5.82
2023-05-05T11:47:44.124Z,4.13
2023-05-05T11:48:51.298Z,4.68
2023-05-05T11:49:53.902Z,5.10
2023-05-05T11:50:56.584Z,4.28
2023-05-05T11:52:13.171Z,3.60
2023-05-05T11:53:15.651Z,3.85
2023-05-05T11:54:21.512Z,3.55
2023-05-05T11:55:24.031Z,3.92
2023-05-05T11:56:26.525Z,5.15
2023-05-05T11:57:32.195Z,3.60
2023-05-05T11:58:34.842Z,3.67
2023-05-05T11:59:58.891Z,3.30
2023-05-05T12:01:06.003Z,3.97
2023-05-05T12:02:09.056Z,4.70
2023-05-05T12:03:14.800Z,5.75
2023-05-05T12:04:19.138Z,3.38
2023-05-05T12:05:21.667Z,4.55
2023-05-05T12:06:24.471Z,3.72
2023-05-05T12:07:28.682Z,5.05
2023-05-05T12:08:41.378Z,3.72
2023-05-05T12:09:45.828Z,5.03
2023-05-05T12:10:48.528Z,3.58
2023-05-05T12:11:58.252Z,4.03
2023-05-05T12:14:10.656Z,4.22
2023-05-05T12:16:16.599Z,5.57
2023-05-05T12:17:21.917Z,4.80
2023-05-05T12:18:24.617Z,3.83
2023-05-05T12:19:30.480Z,5.43
2023-05-05T12:20:33.932Z,3.95
2023-05-05T12:21:36.409Z,2.97
2023-05-05T12:22:39.450Z,3.67
2023-05-05T12:23:42.055Z,4.20
2023-05-05T12:24:44.650Z,4.30
2023-05-05T12:25:47.188Z,4.93
2023-05-05T12:26:49.464Z,3.95
2023-05-05T12:27:53.479Z,3.85
2023-05-05T12:28:56.726Z,3.92
2023-05-05T12:30:13.738Z,5.13
2023-05-05T12:31:16.383Z,4.40
2023-05-05T12:32:26.337Z,5.07
2023-05-05T12:34:31.747Z,8.27
2023-05-05T12:35:34.578Z,5.28
2023-05-05T12:36:37.399Z,6.68
2023-05-05T12:37:40.079Z,4.75
2023-05-05T12:38:42.771Z,4.10
2023-05-05T12:39:45.647Z,3.22
2023-05-05T12:40:52.070Z,3.40
2023-05-05T12:42:03.449Z,3.78
2023-05-05T12:43:06.297Z,3.38
2023-05-05T12:45:05.962Z,4.28
2023-05-05T12:48:38.354Z,4.82
2023-05-05T12:50:45.738Z,3.20
2023-05-05T12:52:07.724Z,3.60
2023-05-05T12:53:26.464Z,3.33
2023-05-05T12:54:38.890Z,3.47
2023-05-05T12:55:47.241Z,3.25
2023-05-05T12:57:41.083Z,4.32
2023-05-05T12:59:26.466Z,3.20
2023-05-05T13:00:46.791Z,4.63
2023-05-05T13:02:30.981Z,3.88
2023-05-05T13:04:13.004Z,3.45
2023-05-05T13:05:33.128Z,3.22
2023-05-05T13:08:44.413Z,4.95
2023-05-05T13:10:20.791Z,3.00
2023-05-05T13:13:18.153Z,2.97
2023-05-05T13:14:48.938Z,2.75
2023-05-05T13:15:51.387Z,3.10
2023-05-05T13:17:25.172Z,5.35
2023-05-05T13:18:43.207Z,3.70
2023-05-05T13:21:37.525Z,3.03
2023-05-05T13:22:47.576Z,4.65
2023-05-05T13:24:01.555Z,4.25
2023-05-05T13:26:31.020Z,3.33
2023-05-05T13:28:06.057Z,4.88
2023-05-05T13:29:31.537Z,4.20
2023-05-05T13:31:42.901Z,3.75
2023-05-05T13:32:45.515Z,3.20
2023-05-05T13:33:55.621Z,4.75
2023-05-05T13:34:58.219Z,4.50
2023-05-05T13:36:18.159Z,2.88
2023-05-05T13:37:30.662Z,2.83
2023-05-05T13:38:39.251Z,3.10
2023-05-05T13:39:47.449Z,3.42
2023-05-05T13:40:50.049Z,4.18
2023-05-05T13:41:52.525Z,3.70
2023-05-05T13:42:55.567Z,3.28
2023-05-05T13:43:58.727Z,4.05
2023-05-05T13:45:01.178Z,3.38
2023-05-05T13:47:01.031Z,4.35
2023-05-05T13:48:43.164Z,3.08
2023-05-05T13:49:46.217Z,4.18
2023-05-05T13:50:58.791Z,4.57
2023-05-05T13:53:28.738Z,4.63
2023-05-05T13:54:31.835Z,4.45
2023-05-05T13:55:34.276Z,3.50
2023-05-05T13:56:37.301Z,4.95
2023-05-05T13:57:57.694Z,3.83
2023-05-05T13:59:08.597Z,3.15
2023-05-05T14:00:11.893Z,3.00
2023-05-05T14:01:16.362Z,3.85
2023-05-05T14:02:20.109Z,4.43
2023-05-05T14:03:47.285Z,3.75
2023-05-05T14:04:58.727Z,4.97
2023-05-05T14:06:01.193Z,4.82
2023-05-05T14:08:25.121Z,3.03
2023-05-05T14:09:30.752Z,3.05
2023-05-05T14:10:38.877Z,2.88
2023-05-05T14:11:50.561Z,4.40
2023-05-05T14:12:53.626Z,4.13
2023-05-05T14:13:56.016Z,3.55
2023-05-05T14:15:02.866Z,3.30
2023-05-05T14:16:08.037Z,6.40
2023-05-05T14:17:19.194Z,6.57
2023-05-05T14:18:47.514Z,4.15
2023-05-05T14:22:14.048Z,4.85
2023-05-05T14:23:24.037Z,2.88
2023-05-05T14:24:26.420Z,5.22
2023-05-05T14:25:29.597Z,5.20
2023-05-05T14:26:32.309Z,4.13
2023-05-05T14:27:35.330Z,3.80
2023-05-05T14:30:28.111Z,3.90
2023-05-05T14:31:38.996Z,7.65
2023-05-05T14:32:47.412Z,3.22
2023-05-05T14:33:56.366Z,7.05
2023-05-05T14:35:01.253Z,7.30
2023-05-05T14:36:09.891Z,6.05
2023-05-05T14:37:16.705Z,3.90
2023-05-05T14:38:26.493Z,3.65
2023-05-05T14:40:03.658Z,5.53
2023-05-05T14:41:11.502Z,3.88
2023-05-05T14:42:13.868Z,3.13
2023-05-05T14:43:16.251Z,3.85
2023-05-05T14:44:21.064Z,2.92
2023-05-05T14:45:23.648Z,3.40
2023-05-05T14:46:51.770Z,5.78
2023-05-05T14:47:54.269Z,3.20
2023-05-05T14:48:57.049Z,5.05
2023-05-05T14:50:26.318Z,3.55
2023-05-05T14:51:32.741Z,7.43
2023-05-05T14:52:40.485Z,2.90
2023-05-05T14:55:11.580Z,3.40
2023-05-05T14:56:14.513Z,5.07
2023-05-05T14:57:24.709Z,3.65
2023-05-05T14:58:41.001Z,2.92
2023-05-05T15:01:00.726Z,2.92
2023-05-05T15:03:10.145Z,2.85
2023-05-05T15:04:16.983Z,2.90
2023-05-05T15:05:36.263Z,6.47
2023-05-05T15:06:40.230Z,3.30
2023-05-05T15:08:07.084Z,3.70
2023-05-05T15:09:09.654Z,5.00
2023-05-05T15:10:42.625Z,4.72
2023-05-05T15:11:55.529Z,5.10
2023-05-05T15:12:59.930Z,3.72
2023-05-05T15:14:04.066Z,3.10
2023-05-05T15:16:31.378Z,2.78
2023-05-05T15:18:25.047Z,3.40
2023-05-05T15:21:06.990Z,5.20
2023-05-05T15:22:23.159Z,3.28
2023-05-05T15:23:36.644Z,3.78
2023-05-05T15:24:39.226Z,3.28
2023-05-05T15:25:41.931Z,4.47
2023-05-05T15:26:45.317Z,4.43
2023-05-05T15:28:04.178Z,3.03
2023-05-05T15:30:09.412Z,3.15
2023-05-05T15:31:22.921Z,5.20
2023-05-05T15:32:38.658Z,4.72
2023-05-05T15:33:41.433Z,3.45
2023-05-05T15:35:03.462Z,3.75
2023-05-05T15:36:41.596Z,4.63
2023-05-05T15:38:05.562Z,3.45
2023-05-05T15:40:10.828Z,4.53
2023-05-05T15:41:19.349Z,12.30
2023-05-05T15:42:32.184Z,9.05
2023-05-05T15:44:13.636Z,8.65
2023-05-05T15:45:17.303Z,5.68
2023-05-05T15:47:22.443Z,4.35
2023-05-05T15:48:59.624Z,3.20
2023-05-05T15:50:02.416Z,3.65
2023-05-05T15:51:04.985Z,4.35
2023-05-05T15:52:08.116Z,4.28
2023-05-05T15:53:10.602Z,6.68
2023-05-05T15:54:38.595Z,5.13
2023-05-05T15:55:40.940Z,3.03
2023-05-05T15:56:44.736Z,4.78
2023-05-05T15:58:12.519Z,3.30
2023-05-05T15:59:15.306Z,5.63
2023-05-05T16:00:19.253Z,4.97
2023-05-05T16:01:21.951Z,3.63
2023-05-05T16:02:25.073Z,3.85
2023-05-05T16:03:27.829Z,4.45
2023-05-05T16:04:30.403Z,5.10
2023-05-05T16:05:33.021Z,3.65
2023-05-05T16:06:35.407Z,5.07
2023-05-05T16:07:38.147Z,3.72
2023-05-05T16:08:40.815Z,2.78
2023-05-05T16:09:44.568Z,3.50
2023-05-05T16:11:50.170Z,3.22
2023-05-05T16:12:53.597Z,3.67
2023-05-05T16:13:56.189Z,2.97
2023-05-05T16:14:59.084Z,3.28
2023-05-05T16:16:01.758Z,3.50
2023-05-05T16:17:04.554Z,3.78
2023-05-05T16:18:07.227Z,3.83
2023-05-05T16:19:09.721Z,3.70
2023-05-05T16:20:12.489Z,4.05
2023-05-05T16:21:15.173Z,3.33
2023-05-05T16:22:17.764Z,3.97
2023-05-05T16:23:20.280Z,2.85
2023-05-05T16:24:23.276Z,5.13
2023-05-05T16:25:26.001Z,4.32
2023-05-05T16:26:28.669Z,3.00
2023-05-05T16:27:31.380Z,3.45
2023-05-05T16:28:34.442Z,3.10